x

Shumagin Islands - 85nm South Of Sand Point, Ak (46075) Wave Buoy

7:50 - Fri 28th Nov 2014 All times are UTC.

  • Sig Wave height 11.5ft
  • Peak Period 11s
  • Average Period 9s
  • Wind
    7mph, 11mph gusts
  • Sea Temp 45°f
  • Ar Temp 42°f
  • Sea Pressure 1017.8mb

More Historic Weather Station data

Upgrade to MSW Pro to gain access to the past 30 days of data for over 8000 Wavebouys and Weather Stations around the globe.

Join Pro

Comparision Forecast

View Surf forecast
   
Sex 11/28 7:50 11.5ft 11s 9s 7 11 mph 1017.8mb 45f 42f
6:50 11.5ft 13s 9s 7 11 mph 1016.9mb 45f 42f
5:50 12.5ft 13s 9s 9 13 mph 1016.5mb 45f 42f
4:50 11ft 13s 9s 7 9 mph 1016.2mb 45f 42f
3:50 11ft 13s 9s 4 9 mph 1016.3mb 45f 42f
2:50 13.5ft 12s 9s 9 11 mph 1016mb 45f 42f
1:50 11ft 12s 8s 11 18 mph 1016.3mb 45f 42f
12:50 13ft 12s 9s 16 20 mph 1016.6mb 45f 41f
11:50 13ft 12s 9s 11 13 mph 1017mb 45f 42f
10:50 14.5ft 13s 9s 9 13 mph 1017.2mb 45f 42f
9:50 15.5ft 11s 9s 13 18 mph 1017.5mb 45f 42f
8:50 14.5ft 13s 9s 11 16 mph 1017.7mb 45f 43f
7:50 15ft 12s 9s 11 16 mph 1017.9mb 45f 43f
6:50 16.5ft 12s 10s 11 16 mph 1017.9mb 45f 43f
5:50 16.5ft 11s 10s 11 16 mph 1017.8mb 45f 43f
4:50 16ft 15s 10s 13 16 mph 1017.9mb 45f 43f
3:50 17.5ft 12s 10s 11 16 mph 1018.1mb 45f 43f
2:50 13ft 13s 9s 13 16 mph 1018mb 45f 43f
1:50 12.5ft 11s 8s 13 18 mph 1018.1mb 45f 44f
12:50 12ft 14s 8s 13 18 mph 1018.2mb 45f 44f
Qui 11/27 11:50 13.5ft 11s 8s 13 18 mph 1018.2mb 45f 44f
10:50 14ft 12s 8s 16 20 mph 1018.5mb 45f 44f
9:50 14ft 12s 8s 18 20 mph 1018.7mb 45f 43f
8:50 15ft 12s 8s 25 29 mph 1018.4mb 45f 43f
7:50 12ft 13s 7s 25 29 mph 1018.6mb 45f 42f
6:50 14.5ft 13s 8s 27 34 mph 1018.5mb 45f 42f
5:50 13ft 12s 7s 27 34 mph 1018.4mb 45f 43f
4:50 12.5ft 12s 7s 25 31 mph 1018.7mb 45f 43f
3:50 14.5ft 13s 8s 27 31 mph 1019mb 45f 43f
2:50 12ft 13s 7s 25 31 mph 1019.5mb 45f 42f
1:50 12.5ft 13s 7s 25 29 mph 1019.8mb 45f 43f
12:50 11.5ft 13s 7s 22 29 mph 1020.3mb 45f 43f
11:50 12ft 13s 7s 22 27 mph 1020.9mb 45f 42f
10:50 11ft 12s 7s 22 27 mph 1021.3mb 45f 42f
9:50 11.5ft 13s 8s 25 29 mph 1021.7mb 45f 42f
8:50 11ft 12s 7s 25 27 mph 1021.7mb 45f 42f
7:50 11ft 13s 8s 20 25 mph 1021.9mb 45f 42f
6:50 11.5ft 13s 8s 20 25 mph 1022.2mb 45f 42f
5:50 12ft 15s 8s 20 25 mph 1022.6mb 45f 41f
4:50 12.5ft 15s 8s 20 25 mph 1022.4mb 45f 42f
3:50 12ft 12s 8s 16 20 mph 1022.4mb 45f 42f
2:50 13ft 15s 9s 18 25 mph 1022.5mb 45f 42f
1:50 14.5ft 15s 9s 20 25 mph 1022.7mb 45f 41f
12:50 13ft 13s 9s 16 18 mph 1023mb 45f 42f
Qua 11/26 11:50 13.5ft 14s 9s 18 25 mph 1023.3mb 45f 41f
10:50 13ft 14s 9s 18 22 mph 1023.5mb 45f 42f
9:50 15ft 15s 10s 18 20 mph 1024.1mb 45f 42f
8:50 13.5ft 15s 9s 16 18 mph 1024.4mb 45f 42f
7:50 13.5ft 16s 9s 16 18 mph 1023.9mb 45f 42f
6:50 12.5ft 16s 9s 13 18 mph 1023.6mb 45f 42f
5:50 11ft 17s 8s 16 20 mph 1023.3mb 45f 42f
4:50 10ft 17s 8s 18 22 mph 1023.1mb 45f 41f
3:50 9ft 11s 8s 16 20 mph 1023mb 45f 42f
2:50 7ft 12s 6s 16 18 mph 1022.8mb 45f 41f
1:50 7ft 12s 6s 16 22 mph 1022.7mb 45f 41f
12:50 8.5ft 12s 7s 18 22 mph 1022.8mb 45f 41f
11:50 7.5ft 13s 6s 18 22 mph 1022.9mb 45f 41f
10:50 8ft 12s 6s 16 20 mph 1023.2mb 45f 40f
9:50 7ft 13s 6s 18 22 mph 1023.1mb 45f 41f
8:50 6ft 9s 6s 18 20 mph 1022.8mb 45f 41f
7:50 5ft 9s 5s 16 20 mph 1022.4mb 45f 41f
6:50 5ft 7s 5s 16 20 mph 1023mb 45f 41f
5:50 4.5ft 8s 5s 16 18 mph 1023mb 45f 41f
4:50 4.5ft 10s 5s 16 22 mph 1023mb 45f 41f
3:50 4.5ft 7s 5s 16 22 mph 1022.5mb 45f 42f
2:50 4.5ft 9s 5s 16 18 mph 1022.4mb 45f 42f
1:50 4.5ft 7s 5s 13 16 mph 1022.1mb 45f 42f
12:50 4.5ft 7s 6s 13 16 mph 1021.9mb 45f 43f
Ter 11/25 11:50 4.5ft 8s 6s 13 16 mph 1022.1mb 45f 43f
10:50 4.5ft 10s 5s 11 13 mph 1022.6mb 45f 43f
9:50 4.5ft 9s 6s 11 16 mph 1022.6mb 45f 42f
8:50 5ft 9s 6s 13
mph
1022.5mb 45f 43f
7:50 5ft 10s 6s 13 16 mph 1022.2mb 45f 43f
6:50 5.5ft 10s 7s 11 13 mph 1021.8mb 45f 43f
5:50 5.5ft 9s 7s 13 16 mph 1021.3mb 45f 43f
4:50 5ft 9s 7s 9 13 mph 1021.1mb 45f 42f
3:50 5ft 8s 6s 9 11 mph 1020.6mb 45f 42f
2:50 5.5ft 11s 7s 11 16 mph 1020.2mb 45f 42f
1:50 5ft 10s 7s 11 16 mph 1019.9mb 45f 42f
12:50 5ft 11s 6s 9 16 mph 1019.6mb 45f 42f
11:50 5.5ft 8s 7s 9 11 mph 1019.2mb 45f 41f
10:50 5.5ft 9s 6s 9 13 mph 1018.5mb 45f 42f
9:50 5.5ft 10s 6s 9 11 mph 1018.3mb 45f 42f
8:50 6ft 9s 6s 9 11 mph 1017.8mb 45f 42f
7:50 7ft 8s 7s 7 9 mph 1017.2mb 45f 41f
6:50 6.5ft 10s 7s 16 20 mph 1016.6mb 45f 41f
5:50 7ft 10s 6s 13 20 mph 1015.8mb 45f 41f
4:50 7ft 8s 6s 16 20 mph 1015.1mb 45f 41f
3:50 7ft 11s 6s 18 20 mph 1014.2mb 45f 41f
2:50 7.5ft 7s 6s 18 22 mph 1013.5mb 45f 40f
1:50 6.5ft 8s 6s 18 20 mph 1012.3mb 45f 40f
12:50 7ft 9s 7s 16 20 mph 1011.3mb 45f 41f
Seg 11/24 11:50 6.5ft 8s 6s 16 20 mph 1011mb 45f 41f
10:50 7ft 10s 6s 20 22 mph 1010.4mb 45f 40f
9:50 7ft 10s 6s 20 25 mph 1009.8mb 45f 40f